Terminal Aerodrome Forecast
Issued by NWS

Home | Current Version | Previous Version | Text Only | Print | Product List | Glossary On
Versions: 1 2 3 4 5 6 7 8 9 10 11 12
000
FTUS42 KTBW 220541
TAFLAL
TAF
KLAL 220541Z 2206/2306 VRB02KT 6SM BR BCFG FEW001 FEW250
     FM221500 VRB05KT P6SM SCT250
     FM222100 35007KT P6SM VCTS SCT050CB BKN100
     FM230200 VRB06KT P6SM FEW050 SCT250
      AMD NOT SKED TIL 221200=

USA.gov is the U.S. government's official web portal to all federal, state and local government web resources and services.